Time;durP1;ratioP1;P1;durP2;ratioP2;P2;SDS_P1;SDS_P2;PMS_P1;PMS_P2;Temp;Humidity;BMP_temperature;BMP_pressure;BME280_temperature;BME280_humidity;BME280_pressure;Samples;Min_cycle;Max_cycle;Signal;HPM_P1;HPM_P2
2023/06/18 00:00:29;;;;;;;6.40;5.40;;;;;;;;;;5021097;28;20205;-40
2023/06/18 00:02:56;;;;;;;5.77;4.93;;;;;;;;;;5018769;28;20222;-42
2023/06/18 00:05:23;;;;;;;5.73;5.10;;;;;;;;;;5027309;28;20217;-37
2023/06/18 00:07:50;;;;;;;6.82;5.22;;;;;;;;;;5014088;28;20223;-37
2023/06/18 00:10:21;;;;;;;5.60;5.10;;;;;;;;;;5021150;28;20223;-42
2023/06/18 00:12:48;;;;;;;8.73;5.60;;;;;;;;;;5023540;28;20215;-37
2023/06/18 00:15:16;;;;;;;6.67;5.30;;;;;;;;;;5014673;28;20227;-38
2023/06/18 00:17:43;;;;;;;6.33;5.50;;;;;;;;;;5017106;28;20210;-38
2023/06/18 00:20:11;;;;;;;7.53;5.30;;;;;;;;;;5020356;28;20219;-38
2023/06/18 00:22:38;;;;;;;7.00;5.87;;;;;;;;;;5028481;28;20238;-37
2023/06/18 00:25:06;;;;;;;5.80;5.15;;;;;;;;;;5018300;28;20199;-37
2023/06/18 00:27:33;;;;;;;6.47;5.03;;;;;;;;;;5027258;28;20517;-35
2023/06/18 00:30:01;;;;;;;6.63;4.90;;;;;;;;;;5018060;28;20280;-40
2023/06/18 00:32:30;;;;;;;7.70;5.23;;;;;;;;;;5025219;28;20210;-34
2023/06/18 00:35:00;;;;;;;6.60;4.90;;;;;;;;;;5022495;28;20210;-42
2023/06/18 00:37:27;;;;;;;5.40;4.90;;;;;;;;;;5014503;28;20211;-35
2023/06/18 00:39:54;;;;;;;5.77;5.17;;;;;;;;;;5016962;28;20245;-40
2023/06/18 00:42:22;;;;;;;7.70;5.60;;;;;;;;;;5021440;28;20234;-42
2023/06/18 00:44:49;;;;;;;7.73;5.63;;;;;;;;;;5032456;28;20685;-39
2023/06/18 00:47:19;;;;;;;5.80;5.20;;;;;;;;;;5031645;28;20233;-44
2023/06/18 00:49:48;;;;;;;6.23;5.50;;;;;;;;;;5017157;28;20231;-40
2023/06/18 00:52:15;;;;;;;6.10;5.50;;;;;;;;;;5031143;28;20202;-42
2023/06/18 00:54:44;;;;;;;6.40;5.53;;;;;;;;;;5014628;28;20211;-37
2023/06/18 00:57:13;;;;;;;7.20;5.20;;;;;;;;;;5027001;28;20199;-40
2023/06/18 00:59:42;;;;;;;6.00;5.40;;;;;;;;;;5030062;28;20226;-35
2023/06/18 01:02:09;;;;;;;6.07;5.33;;;;;;;;;;5015989;28;20205;-39
2023/06/18 01:04:37;;;;;;;7.10;5.87;;;;;;;;;;5029826;28;20202;-38
2023/06/18 01:07:12;;;;;;;6.50;5.77;;;;;;;;;;5010042;28;20206;-36
2023/06/18 01:09:40;;;;;;;6.10;5.50;;;;;;;;;;5012758;28;20473;-40
2023/06/18 01:12:08;;;;;;;6.23;5.43;;;;;;;;;;5011876;28;20321;-37
2023/06/18 01:14:39;;;;;;;6.13;5.53;;;;;;;;;;5027516;28;20206;-41
2023/06/18 01:17:07;;;;;;;6.43;5.73;;;;;;;;;;5030583;28;20293;-43
2023/06/18 01:19:45;;;;;;;5.83;5.23;;;;;;;;;;5024915;28;20226;-35
2023/06/18 01:22:19;;;;;;;6.20;5.47;;;;;;;;;;5010375;28;20339;-39
2023/06/18 01:24:49;;;;;;;6.77;6.00;;;;;;;;;;5010020;28;20232;-34
2023/06/18 01:27:21;;;;;;;6.17;5.67;;;;;;;;;;5019360;28;20202;-38
2023/06/18 01:29:48;;;;;;;6.23;5.63;;;;;;;;;;5029462;28;20233;-40
2023/06/18 01:32:15;;;;;;;6.60;5.23;;;;;;;;;;5023922;28;20217;-36
2023/06/18 01:34:43;;;;;;;9.93;5.60;;;;;;;;;;5020546;28;20202;-41
2023/06/18 01:37:14;;;;;;;6.27;5.00;;;;;;;;;;5009871;28;20203;-36
2023/06/18 01:39:46;;;;;;;6.67;5.87;;;;;;;;;;5017109;28;20218;-39
2023/06/18 01:42:16;;;;;;;7.03;5.47;;;;;;;;;;5027010;28;20213;-40
2023/06/18 01:44:45;;;;;;;7.70;5.77;;;;;;;;;;5029838;28;20202;-41
2023/06/18 01:47:14;;;;;;;5.97;5.37;;;;;;;;;;5021295;28;20199;-35
2023/06/18 01:49:43;;;;;;;5.97;5.37;;;;;;;;;;5025118;28;20618;-37
2023/06/18 01:52:12;;;;;;;5.97;5.17;;;;;;;;;;5021331;28;20195;-38
2023/06/18 01:54:41;;;;;;;6.13;5.53;;;;;;;;;;5020014;28;20293;-38
2023/06/18 01:57:09;;;;;;;5.67;5.17;;;;;;;;;;5021679;28;20206;-40
2023/06/18 01:59:36;;;;;;;6.00;5.40;;;;;;;;;;5022742;28;20241;-33
2023/06/18 02:02:03;;;;;;;5.30;4.80;;;;;;;;;;5022181;28;20213;-35
2023/06/18 02:04:31;;;;;;;5.73;5.23;;;;;;;;;;5021270;28;20259;-40
2023/06/18 02:06:58;;;;;;;6.50;5.87;;;;;;;;;;5010045;28;20203;-39
2023/06/18 02:09:25;;;;;;;5.93;5.33;;;;;;;;;;5010576;28;20239;-39
2023/06/18 02:11:52;;;;;;;9.50;5.93;;;;;;;;;;5010127;28;20269;-39
2023/06/18 02:14:20;;;;;;;6.00;5.40;;;;;;;;;;5009580;28;20290;-37
2023/06/18 02:16:49;;;;;;;6.33;5.50;;;;;;;;;;5008825;28;20219;-37
2023/06/18 02:19:16;;;;;;;9.53;5.40;;;;;;;;;;5022400;28;20219;-42
2023/06/18 02:21:43;;;;;;;6.13;5.53;;;;;;;;;;5020057;28;20217;-42
2023/06/18 02:24:10;;;;;;;6.63;5.73;;;;;;;;;;5012724;28;20203;-38
2023/06/18 02:26:37;;;;;;;6.30;5.70;;;;;;;;;;5024530;28;20225;-42
2023/06/18 02:29:05;;;;;;;5.67;5.17;;;;;;;;;;5017794;28;20325;-35
2023/06/18 02:31:33;;;;;;;6.23;5.43;;;;;;;;;;5017902;28;20525;-36
2023/06/18 02:34:01;;;;;;;6.20;5.10;;;;;;;;;;5013866;28;20205;-33
2023/06/18 02:36:28;;;;;;;6.93;5.80;;;;;;;;;;5017489;28;20195;-42
2023/06/18 02:38:55;;;;;;;6.63;5.93;;;;;;;;;;5017521;28;20248;-37
2023/06/18 02:41:22;;;;;;;6.30;5.70;;;;;;;;;;5020169;28;20205;-39
2023/06/18 02:43:50;;;;;;;6.07;5.00;;;;;;;;;;5029298;28;20206;-39
2023/06/18 02:46:17;;;;;;;6.43;5.10;;;;;;;;;;5028862;28;20596;-40
2023/06/18 02:48:46;;;;;;;6.60;5.90;;;;;;;;;;5014896;28;20238;-35
2023/06/18 02:51:13;;;;;;;7.60;5.90;;;;;;;;;;5014288;28;20209;-37
2023/06/18 02:53:40;;;;;;;6.57;5.57;;;;;;;;;;5010048;28;20214;-34
2023/06/18 02:56:07;;;;;;;6.27;5.67;;;;;;;;;;5017264;28;20202;-37
2023/06/18 02:58:35;;;;;;;6.73;5.40;;;;;;;;;;5012915;28;20232;-40
2023/06/18 03:01:03;;;;;;;8.20;5.30;;;;;;;;;;5032793;28;20263;-39
2023/06/18 03:03:30;;;;;;;6.30;5.70;;;;;;;;;;5024792;28;20481;-37
2023/06/18 03:05:58;;;;;;;6.03;5.43;;;;;;;;;;5024135;28;20208;-39
2023/06/18 03:08:26;;;;;;;5.57;4.97;;;;;;;;;;5014347;28;20271;-40
2023/06/18 03:10:53;;;;;;;5.90;5.27;;;;;;;;;;5026411;28;20217;-39
2023/06/18 03:13:20;;;;;;;8.70;5.60;;;;;;;;;;5024619;28;20267;-36
2023/06/18 03:15:47;;;;;;;6.03;5.43;;;;;;;;;;5032824;28;20428;-37
2023/06/18 03:18:14;;;;;;;7.03;5.30;;;;;;;;;;5023766;28;20202;-35
2023/06/18 03:20:42;;;;;;;6.37;5.77;;;;;;;;;;5019396;28;20220;-34
2023/06/18 03:23:11;;;;;;;5.70;5.10;;;;;;;;;;5010871;28;20201;-40
2023/06/18 03:25:38;;;;;;;5.33;4.83;;;;;;;;;;5019519;28;20209;-38
2023/06/18 03:28:06;;;;;;;6.50;5.13;;;;;;;;;;5023874;28;20210;-36
2023/06/18 03:30:33;;;;;;;6.70;5.47;;;;;;;;;;5032176;28;20221;-41
2023/06/18 03:33:02;;;;;;;6.47;5.80;;;;;;;;;;5014619;28;20286;-38
2023/06/18 03:35:30;;;;;;;6.37;5.00;;;;;;;;;;5029882;28;20196;-38
2023/06/18 03:37:57;;;;;;;7.00;5.63;;;;;;;;;;5024431;28;20675;-33
2023/06/18 03:40:25;;;;;;;7.27;5.80;;;;;;;;;;5016667;28;20288;-32
2023/06/18 03:42:52;;;;;;;9.20;5.30;;;;;;;;;;5021781;28;20216;-34
2023/06/18 03:45:20;;;;;;;6.17;5.30;;;;;;;;;;5015042;28;20213;-39
2023/06/18 03:47:47;;;;;;;5.23;4.73;;;;;;;;;;5019104;28;20265;-36
2023/06/18 03:50:14;;;;;;;6.00;5.40;;;;;;;;;;5020973;28;20231;-40
2023/06/18 03:52:41;;;;;;;7.00;5.60;;;;;;;;;;5015273;28;20208;-36
2023/06/18 03:55:09;;;;;;;6.17;5.37;;;;;;;;;;5023462;28;20206;-39
2023/06/18 03:57:38;;;;;;;5.87;5.10;;;;;;;;;;5028966;28;20208;-36
2023/06/18 04:00:07;;;;;;;7.27;5.63;;;;;;;;;;5012776;28;20710;-35
2023/06/18 04:02:34;;;;;;;6.20;5.60;;;;;;;;;;5014612;28;20212;-38
2023/06/18 04:05:01;;;;;;;7.07;5.63;;;;;;;;;;5109998;23;20229;-27
2023/06/18 04:07:28;;;;;;;6.50;5.13;;;;;;;;;;5003818;28;20722;-25
2023/06/18 04:09:55;;;;;;;7.00;5.53;;;;;;;;;;5014473;28;20238;-25
2023/06/18 04:12:23;;;;;;;5.63;5.13;;;;;;;;;;5013494;28;20206;-26
2023/06/18 04:14:51;;;;;;;8.07;5.67;;;;;;;;;;5031932;28;20209;-25
2023/06/18 04:17:18;;;;;;;7.27;5.63;;;;;;;;;;5026400;28;20212;-23
2023/06/18 04:19:45;;;;;;;6.13;5.53;;;;;;;;;;5015447;28;20226;-27
2023/06/18 04:22:12;;;;;;;6.80;5.93;;;;;;;;;;5034144;28;20202;-26
2023/06/18 04:24:40;;;;;;;5.87;5.20;;;;;;;;;;5027546;28;20224;-26
2023/06/18 04:27:07;;;;;;;7.00;5.87;;;;;;;;;;5018084;28;20224;-30
2023/06/18 04:29:34;;;;;;;6.47;5.87;;;;;;;;;;5034444;28;20229;-25
2023/06/18 04:32:02;;;;;;;7.20;5.80;;;;;;;;;;5028494;28;20204;-27
2023/06/18 04:34:29;;;;;;;6.13;5.53;;;;;;;;;;5017473;28;20224;-24
2023/06/18 04:36:56;;;;;;;7.50;5.80;;;;;;;;;;5033205;28;20206;-26
2023/06/18 04:39:23;;;;;;;6.67;5.97;;;;;;;;;;5021940;28;20222;-28
2023/06/18 04:41:50;;;;;;;8.13;6.20;;;;;;;;;;5015512;28;20209;-28
2023/06/18 04:44:18;;;;;;;7.47;5.73;;;;;;;;;;5033191;28;20506;-26
2023/06/18 04:46:45;;;;;;;6.03;5.40;;;;;;;;;;5033585;28;20209;-23
2023/06/18 04:49:15;;;;;;;6.40;5.80;;;;;;;;;;5020217;28;20259;-26
2023/06/18 04:51:43;;;;;;;6.90;5.53;;;;;;;;;;5014933;28;20273;-26
2023/06/18 04:54:11;;;;;;;5.97;5.37;;;;;;;;;;5017237;28;20213;-23
2023/06/18 04:56:38;;;;;;;6.10;5.50;;;;;;;;;;5021102;28;20609;-25
2023/06/18 04:59:06;;;;;;;7.83;5.43;;;;;;;;;;5025287;28;20221;-27
2023/06/18 05:01:33;;;;;;;6.20;5.50;;;;;;;;;;5033137;28;20236;-26
2023/06/18 05:04:00;;;;;;;7.07;5.47;;;;;;;;;;5027618;28;20221;-25
2023/06/18 05:06:29;;;;;;;6.73;5.30;;;;;;;;;;5025120;28;20232;-24
2023/06/18 05:09:01;;;;;;;6.00;5.37;;;;;;;;;;5023731;28;20236;-29
2023/06/18 05:11:28;;;;;;;5.90;5.30;;;;;;;;;;5013034;28;20207;-27
2023/06/18 05:13:55;;;;;;;6.17;5.40;;;;;;;;;;5011398;28;20198;-26
2023/06/18 05:16:22;;;;;;;6.13;5.53;;;;;;;;;;5020863;28;20202;-25
2023/06/18 05:18:49;;;;;;;6.80;5.67;;;;;;;;;;5018851;28;20581;-26
2023/06/18 05:21:19;;;;;;;6.40;5.70;;;;;;;;;;5032915;28;20210;-26
2023/06/18 05:23:47;;;;;;;6.63;5.03;;;;;;;;;;5024104;28;20210;-25
2023/06/18 05:26:14;;;;;;;7.70;5.50;;;;;;;;;;5017246;28;20206;-26
2023/06/18 05:28:42;;;;;;;6.67;5.97;;;;;;;;;;5032234;28;20225;-24
2023/06/18 05:31:09;;;;;;;8.57;6.20;;;;;;;;;;5023887;28;20237;-24
2023/06/18 05:33:36;;;;;;;5.97;5.10;;;;;;;;;;5025023;28;20653;-29
2023/06/18 05:36:03;;;;;;;6.40;5.50;;;;;;;;;;5025446;28;20209;-25
2023/06/18 05:38:30;;;;;;;5.90;5.17;;;;;;;;;;5021053;28;20234;-26
2023/06/18 05:40:59;;;;;;;7.07;5.70;;;;;;;;;;5023635;28;20198;-27
2023/06/18 05:43:26;;;;;;;7.57;5.67;;;;;;;;;;5025325;28;20195;-25
2023/06/18 05:45:53;;;;;;;6.53;5.83;;;;;;;;;;5012814;28;20215;-25
2023/06/18 05:48:20;;;;;;;6.07;5.57;;;;;;;;;;5011570;28;20230;-26
2023/06/18 05:50:47;;;;;;;8.67;5.77;;;;;;;;;;5013048;28;20227;-28
2023/06/18 05:53:14;;;;;;;5.80;5.30;;;;;;;;;;5012398;28;20198;-27
2023/06/18 05:55:42;;;;;;;7.53;5.50;;;;;;;;;;5018522;28;20218;-27
2023/06/18 05:58:10;;;;;;;6.87;5.57;;;;;;;;;;5018775;28;20230;-25
2023/06/18 06:00:37;;;;;;;5.50;5.00;;;;;;;;;;5031635;28;20257;-26
2023/06/18 06:03:05;;;;;;;6.20;5.60;;;;;;;;;;5024237;28;20289;-28
2023/06/18 06:05:33;;;;;;;6.07;5.47;;;;;;;;;;5019952;28;20214;-26
2023/06/18 06:08:00;;;;;;;7.70;5.70;;;;;;;;;;5011125;28;20207;-26
2023/06/18 06:10:27;;;;;;;8.53;5.67;;;;;;;;;;5012654;28;20230;-25
2023/06/18 06:12:54;;;;;;;6.10;5.50;;;;;;;;;;5022329;28;20202;-27
2023/06/18 06:15:23;;;;;;;6.00;5.40;;;;;;;;;;5032079;28;20213;-24
2023/06/18 06:17:50;;;;;;;6.63;5.93;;;;;;;;;;5021261;28;20293;-25
2023/06/18 06:20:17;;;;;;;6.63;6.00;;;;;;;;;;5011968;28;20230;-27
2023/06/18 06:22:44;;;;;;;7.10;5.55;;;;;;;;;;5011752;28;20203;-28
2023/06/18 06:25:11;;;;;;;8.47;5.93;;;;;;;;;;5014586;28;20215;-27
2023/06/18 06:27:49;;;;;;;6.80;5.73;;;;;;;;;;5022639;28;20657;-26
2023/06/18 06:30:16;;;;;;;6.50;5.80;;;;;;;;;;5015724;28;20573;-27
2023/06/18 06:32:44;;;;;;;5.88;5.32;;;;;;;;;;5017630;28;20217;-26
2023/06/18 06:35:11;;;;;;;7.13;6.40;;;;;;;;;;5018937;28;20218;-26
2023/06/18 06:37:39;;;;;;;6.80;5.57;;;;;;;;;;5018921;28;20210;-24
2023/06/18 06:40:06;;;;;;;7.97;5.97;;;;;;;;;;5013229;28;20215;-25
2023/06/18 06:42:33;;;;;;;7.10;5.53;;;;;;;;;;5027272;28;20303;-24
2023/06/18 06:45:01;;;;;;;7.65;5.70;;;;;;;;;;5016384;28;20396;-25
2023/06/18 06:47:28;;;;;;;7.55;5.93;;;;;;;;;;5021825;28;20213;-26
2023/06/18 06:49:56;;;;;;;6.60;5.65;;;;;;;;;;5033694;28;20226;-28
2023/06/18 06:52:25;;;;;;;8.70;6.47;;;;;;;;;;5036093;28;20208;-27
2023/06/18 06:54:52;;;;;;;7.50;6.05;;;;;;;;;;5026066;28;20200;-28
2023/06/18 06:57:20;;;;;;;5.82;5.32;;;;;;;;;;5028913;28;20212;-25
2023/06/18 06:59:47;;;;;;;6.07;5.47;;;;;;;;;;5033108;28;20219;-24
2023/06/18 07:02:14;;;;;;;6.82;6.13;;;;;;;;;;5035434;28;20224;-25
2023/06/18 07:04:47;;;;;;;9.00;6.20;;;;;;;;;;5022307;28;20623;-26
2023/06/18 07:07:16;;;;;;;6.40;5.80;;;;;;;;;;5020844;28;20287;-25
2023/06/18 07:09:43;;;;;;;6.82;5.63;;;;;;;;;;5017440;28;20232;-27
2023/06/18 07:12:11;;;;;;;6.18;5.47;;;;;;;;;;5029036;28;20208;-28
2023/06/18 07:14:38;;;;;;;6.88;6.18;;;;;;;;;;5035381;28;20549;-27
2023/06/18 07:17:06;;;;;;;6.03;5.47;;;;;;;;;;5032033;28;20204;-28
2023/06/18 07:19:33;;;;;;;6.15;5.60;;;;;;;;;;5026392;28;20225;-26
2023/06/18 07:22:00;;;;;;;6.32;5.72;;;;;;;;;;5034475;28;20261;-26
2023/06/18 07:24:35;;;;;;;7.65;5.57;;;;;;;;;;5025320;28;20218;-27
2023/06/18 07:27:03;;;;;;;6.70;5.35;;;;;;;;;;5018231;28;20204;-26
2023/06/18 07:29:30;;;;;;;6.20;5.60;;;;;;;;;;5026324;28;20237;-27
2023/06/18 07:31:57;;;;;;;5.70;5.20;;;;;;;;;;5030659;28;20243;-28
2023/06/18 07:34:24;;;;;;;5.53;5.03;;;;;;;;;;5022805;28;20581;-29
2023/06/18 07:36:51;;;;;;;5.40;4.88;;;;;;;;;;5025071;28;20220;-27
2023/06/18 07:39:18;;;;;;;5.95;5.22;;;;;;;;;;5018901;28;20222;-28
2023/06/18 07:41:47;;;;;;;5.38;4.88;;;;;;;;;;5023374;28;20563;-28
2023/06/18 07:44:14;;;;;;;5.63;4.72;;;;;;;;;;5035083;28;20208;-26
2023/06/18 07:46:42;;;;;;;6.15;4.75;;;;;;;;;;5033578;28;20570;-27
2023/06/18 07:49:09;;;;;;;6.15;5.40;;;;;;;;;;5022293;28;20277;-27
2023/06/18 07:51:37;;;;;;;6.00;5.40;;;;;;;;;;5026224;28;20230;-26
2023/06/18 07:54:04;;;;;;;5.65;5.15;;;;;;;;;;5018244;28;20218;-27
2023/06/18 07:56:31;;;;;;;6.45;5.75;;;;;;;;;;5019279;28;20217;-24
2023/06/18 07:59:00;;;;;;;5.50;4.85;;;;;;;;;;5022692;28;20229;-27
2023/06/18 08:01:27;;;;;;;8.68;5.35;;;;;;;;;;5018089;28;20210;-28
2023/06/18 08:03:54;;;;;;;5.18;4.78;;;;;;;;;;5021841;28;20217;-28
2023/06/18 08:06:21;;;;;;;5.60;5.10;;;;;;;;;;5022902;28;20581;-28
2023/06/18 08:08:49;;;;;;;7.68;5.28;;;;;;;;;;5013672;28;20242;-25
2023/06/18 08:11:17;;;;;;;5.22;4.60;;;;;;;;;;5016325;28;20230;-27
2023/06/18 08:13:44;;;;;;;5.75;5.25;;;;;;;;;;5015105;28;20214;-26
2023/06/18 08:16:12;;;;;;;5.57;5.03;;;;;;;;;;5013423;28;20206;-26
2023/06/18 08:18:40;;;;;;;7.45;5.80;;;;;;;;;;5019814;28;20221;-28
2023/06/18 08:21:07;;;;;;;6.53;5.65;;;;;;;;;;5034142;28;20194;-27
2023/06/18 08:23:34;;;;;;;5.03;4.63;;;;;;;;;;5028814;28;20206;-26
2023/06/18 08:26:01;;;;;;;6.22;4.70;;;;;;;;;;5025060;28;20202;-28
2023/06/18 08:28:29;;;;;;;8.38;5.13;;;;;;;;;;5018461;28;20223;-27
2023/06/18 08:30:56;;;;;;;6.05;5.10;;;;;;;;;;5019881;28;20217;-26
2023/06/18 08:33:24;;;;;;;6.30;5.03;;;;;;;;;;5031395;28;20234;-28
2023/06/18 08:35:51;;;;;;;7.93;5.07;;;;;;;;;;5032260;28;20211;-28
2023/06/18 08:38:18;;;;;;;6.28;4.57;;;;;;;;;;5030825;28;20225;-26
2023/06/18 08:40:50;;;;;;;5.40;4.90;;;;;;;;;;5022682;28;20654;-28
2023/06/18 08:43:21;;;;;;;5.65;4.80;;;;;;;;;;5014028;28;20206;-26
2023/06/18 08:45:49;;;;;;;4.68;4.15;;;;;;;;;;5025113;28;20605;-28
2023/06/18 08:48:16;;;;;;;5.15;4.65;;;;;;;;;;5027657;28;20321;-29
2023/06/18 08:50:45;;;;;;;7.53;4.68;;;;;;;;;;5030478;28;20222;-28
2023/06/18 08:53:14;;;;;;;5.68;4.80;;;;;;;;;;5025512;28;20261;-26
2023/06/18 08:55:44;;;;;;;6.57;4.80;;;;;;;;;;5019332;28;20210;-26
2023/06/18 08:58:13;;;;;;;5.20;4.70;;;;;;;;;;5017428;28;20277;-27
2023/06/18 09:00:40;;;;;;;6.55;4.88;;;;;;;;;;5030421;28;20202;-26
2023/06/18 09:03:08;;;;;;;6.18;4.85;;;;;;;;;;5017646;28;20203;-27
2023/06/18 09:05:35;;;;;;;5.38;4.47;;;;;;;;;;5014546;28;20215;-27
2023/06/18 09:08:04;;;;;;;6.13;5.22;;;;;;;;;;5014619;28;20685;-29
2023/06/18 09:10:31;;;;;;;5.75;4.53;;;;;;;;;;5030899;28;20226;-27
2023/06/18 09:12:58;;;;;;;4.50;4.07;;;;;;;;;;5034156;28;20645;-28
2023/06/18 09:15:25;;;;;;;8.13;4.93;;;;;;;;;;5033607;28;20213;-28
2023/06/18 09:17:53;;;;;;;5.38;4.78;;;;;;;;;;5022744;28;20689;-27
2023/06/18 09:20:20;;;;;;;5.32;4.82;;;;;;;;;;5020384;28;20229;-28
2023/06/18 09:22:48;;;;;;;5.32;4.75;;;;;;;;;;5024507;28;20238;-29
2023/06/18 09:25:20;;;;;;;4.53;4.13;;;;;;;;;;5022497;28;20217;-29
2023/06/18 09:27:48;;;;;;;5.72;4.60;;;;;;;;;;5022157;28;20191;-29
2023/06/18 09:30:19;;;;;;;6.22;4.60;;;;;;;;;;5027330;28;20222;-28
2023/06/18 09:32:47;;;;;;;5.03;4.20;;;;;;;;;;5024865;28;20203;-28
2023/06/18 09:35:15;;;;;;;5.57;4.13;;;;;;;;;;5027786;28;20202;-26
2023/06/18 09:37:42;;;;;;;5.25;4.75;;;;;;;;;;5032348;28;20209;-28
2023/06/18 09:40:10;;;;;;;5.35;4.85;;;;;;;;;;5017326;28;20271;-28
2023/06/18 09:42:39;;;;;;;4.90;4.40;;;;;;;;;;5020417;28;20200;-28
2023/06/18 09:45:06;;;;;;;5.28;4.65;;;;;;;;;;5033046;28;20217;-27
2023/06/18 09:47:34;;;;;;;5.68;4.55;;;;;;;;;;5028096;28;20219;-29
2023/06/18 09:50:01;;;;;;;5.85;4.53;;;;;;;;;;5021000;28;20763;-26
2023/06/18 09:52:28;;;;;;;5.30;4.80;;;;;;;;;;5019741;28;20218;-29
2023/06/18 09:54:55;;;;;;;4.88;4.18;;;;;;;;;;5014291;28;20207;-28
2023/06/18 09:57:23;;;;;;;5.22;4.72;;;;;;;;;;5029734;28;20202;-27
2023/06/18 10:00:11;;;;;;;4.97;4.10;;;;;;;;;;5032536;28;20585;-27
2023/06/18 10:02:38;;;;;;;4.70;4.30;;;;;;;;;;5032564;28;20547;-24
2023/06/18 10:07:34;;;;;;;5.25;4.43;;;;;;;;;;4983011;28;20240;-37
2023/06/18 10:10:02;;;;;;;4.70;4.20;;;;;;;;;;4979847;28;20220;-39
2023/06/18 10:12:30;;;;;;;4.85;4.45;;;;;;;;;;4989467;28;20234;-36
2023/06/18 10:14:58;;;;;;;5.15;4.65;;;;;;;;;;4974366;28;20207;-35
2023/06/18 10:17:27;;;;;;;5.30;4.05;;;;;;;;;;4975029;28;20208;-40
2023/06/18 10:19:59;;;;;;;5.28;4.78;;;;;;;;;;4984202;28;20224;-40
2023/06/18 10:22:26;;;;;;;7.80;4.57;;;;;;;;;;4988303;28;20196;-39
2023/06/18 10:24:57;;;;;;;4.45;4.05;;;;;;;;;;4980121;28;20218;-37
2023/06/18 10:27:25;;;;;;;5.28;4.47;;;;;;;;;;4990927;28;20204;-41
2023/06/18 10:29:52;;;;;;;7.20;4.60;;;;;;;;;;4993826;28;20255;-41
2023/06/18 10:32:21;;;;;;;4.95;4.40;;;;;;;;;;4990164;28;20595;-39
2023/06/18 10:34:48;;;;;;;5.70;4.10;;;;;;;;;;4982576;28;20208;-36
2023/06/18 10:37:16;;;;;;;4.88;4.20;;;;;;;;;;4987355;28;20210;-37
2023/06/18 10:39:43;;;;;;;9.45;4.63;;;;;;;;;;4983849;28;20232;-39
2023/06/18 10:42:14;;;;;;;5.75;5.13;;;;;;;;;;4984263;28;20200;-32
2023/06/18 10:44:52;;;;;;;5.32;4.70;;;;;;;;;;4978825;28;20554;-38
2023/06/18 10:47:22;;;;;;;5.40;4.82;;;;;;;;;;4986360;28;20195;-36
2023/06/18 10:50:04;;;;;;;5.88;4.57;;;;;;;;;;4982017;28;20230;-41
2023/06/18 10:52:32;;;;;;;5.97;4.13;;;;;;;;;;4973189;28;20252;-36
2023/06/18 10:55:06;;;;;;;5.65;4.90;;;;;;;;;;4980340;28;20212;-36
2023/06/18 10:57:36;;;;;;;4.65;4.25;;;;;;;;;;4983973;28;20203;-42
2023/06/18 11:00:15;;;;;;;4.95;4.45;;;;;;;;;;4973717;28;20232;-37
2023/06/18 11:02:44;;;;;;;4.97;4.35;;;;;;;;;;4976208;28;20486;-40
2023/06/18 11:05:16;;;;;;;5.53;4.95;;;;;;;;;;4989038;28;20258;-39
2023/06/18 11:07:43;;;;;;;6.18;4.72;;;;;;;;;;4992102;28;20231;-35
2023/06/18 11:10:11;;;;;;;4.80;4.40;;;;;;;;;;4982007;28;20238;-43
2023/06/18 11:12:39;;;;;;;7.15;4.82;;;;;;;;;;4978340;28;20311;-34
2023/06/18 11:15:15;;;;;;;5.93;4.70;;;;;;;;;;4970699;28;20212;-36
2023/06/18 11:17:44;;;;;;;5.18;4.68;;;;;;;;;;4971896;28;20233;-39
2023/06/18 11:20:12;;;;;;;4.75;4.35;;;;;;;;;;4985451;28;20227;-36
2023/06/18 11:22:40;;;;;;;4.85;4.35;;;;;;;;;;4995715;28;20278;-35
2023/06/18 11:25:08;;;;;;;5.55;4.80;;;;;;;;;;4980872;28;20208;-37
2023/06/18 11:27:36;;;;;;;6.13;4.45;;;;;;;;;;4982885;28;20216;-41
2023/06/18 11:30:03;;;;;;;5.75;4.82;;;;;;;;;;4982698;28;20212;-35
2023/06/18 11:32:30;;;;;;;6.00;4.70;;;;;;;;;;4988391;28;20235;-40
2023/06/18 11:34:58;;;;;;;4.82;4.32;;;;;;;;;;4986489;28;20267;-43
2023/06/18 11:37:27;;;;;;;5.43;4.47;;;;;;;;;;4985750;28;20204;-39
2023/06/18 11:40:02;;;;;;;5.40;4.90;;;;;;;;;;4973608;28;20290;-33
2023/06/18 11:42:29;;;;;;;9.43;5.03;;;;;;;;;;4980986;28;20257;-40
2023/06/18 11:45:01;;;;;;;5.03;4.47;;;;;;;;;;4993664;28;20227;-38
2023/06/18 11:47:29;;;;;;;4.90;4.43;;;;;;;;;;4992695;28;20223;-35
2023/06/18 11:49:57;;;;;;;4.32;3.92;;;;;;;;;;4985067;28;20229;-35
2023/06/18 11:52:27;;;;;;;5.03;4.05;;;;;;;;;;4988065;28;20581;-40
2023/06/18 11:54:55;;;;;;;4.72;4.32;;;;;;;;;;4985109;28;20204;-38
2023/06/18 11:57:22;;;;;;;5.90;4.65;;;;;;;;;;4980217;28;20204;-32
2023/06/18 11:59:52;;;;;;;7.43;4.07;;;;;;;;;;4981435;28;20238;-37
2023/06/18 12:02:19;;;;;;;5.82;4.90;;;;;;;;;;4993327;28;20542;-35
2023/06/18 12:04:47;;;;;;;5.22;4.28;;;;;;;;;;4990737;28;20219;-38
2023/06/18 12:07:17;;;;;;;4.40;4.00;;;;;;;;;;4984541;28;20305;-35
2023/06/18 12:09:51;;;;;;;4.60;4.20;;;;;;;;;;4984064;28;20227;-35
2023/06/18 12:12:23;;;;;;;4.82;4.35;;;;;;;;;;4977785;28;20242;-40
2023/06/18 12:14:54;;;;;;;5.80;4.35;;;;;;;;;;4994331;28;20286;-40
2023/06/18 12:17:27;;;;;;;5.03;4.40;;;;;;;;;;4979800;28;20208;-40
2023/06/18 12:19:59;;;;;;;4.18;3.85;;;;;;;;;;4986371;28;20333;-40
2023/06/18 12:22:26;;;;;;;11.13;5.32;;;;;;;;;;4995086;28;20192;-34
2023/06/18 12:24:56;;;;;;;4.45;4.05;;;;;;;;;;4983445;28;20216;-40
2023/06/18 12:27:24;;;;;;;7.50;4.45;;;;;;;;;;4980038;28;20205;-37
2023/06/18 12:29:52;;;;;;;5.13;4.43;;;;;;;;;;4993999;28;20507;-36
2023/06/18 12:32:19;;;;;;;4.78;4.38;;;;;;;;;;4989913;28;20234;-39
2023/06/18 12:34:46;;;;;;;5.45;4.65;;;;;;;;;;4989091;28;20215;-40
2023/06/18 12:37:13;;;;;;;4.55;4.15;;;;;;;;;;4979987;28;20200;-35
2023/06/18 12:39:40;;;;;;;5.63;4.30;;;;;;;;;;4986695;28;20236;-41
2023/06/18 12:42:12;;;;;;;4.55;4.00;;;;;;;;;;4976623;28;20197;-33
2023/06/18 12:44:41;;;;;;;3.97;3.58;;;;;;;;;;4975619;28;20215;-34
2023/06/18 12:47:08;;;;;;;3.75;3.33;;;;;;;;;;4975673;28;20263;-37
2023/06/18 12:49:38;;;;;;;5.18;3.80;;;;;;;;;;4982603;28;20592;-34
2023/06/18 12:52:14;;;;;;;4.53;4.00;;;;;;;;;;4984663;28;20215;-38
2023/06/18 12:54:42;;;;;;;5.57;4.22;;;;;;;;;;4990665;28;20248;-37
2023/06/18 12:57:10;;;;;;;4.93;4.30;;;;;;;;;;4990718;28;20207;-40
2023/06/18 12:59:38;;;;;;;5.82;4.25;;;;;;;;;;4976512;28;20236;-39
2023/06/18 13:02:05;;;;;;;4.18;3.78;;;;;;;;;;4988484;28;20204;-34
2023/06/18 13:04:33;;;;;;;4.70;4.15;;;;;;;;;;4984953;28;20303;-40
2023/06/18 13:07:00;;;;;;;4.10;3.78;;;;;;;;;;4975489;28;20213;-38
2023/06/18 13:09:27;;;;;;;4.45;4.05;;;;;;;;;;4978808;28;20232;-36
2023/06/18 13:11:55;;;;;;;5.05;4.05;;;;;;;;;;4977051;28;20230;-40
2023/06/18 13:14:22;;;;;;;5.72;3.83;;;;;;;;;;4993782;28;20242;-35
2023/06/18 13:16:51;;;;;;;4.43;4.03;;;;;;;;;;4973742;28;20299;-38
2023/06/18 13:19:18;;;;;;;5.05;4.25;;;;;;;;;;4980393;28;20224;-40
2023/06/18 13:21:46;;;;;;;4.20;3.80;;;;;;;;;;4990936;28;20294;-40
2023/06/18 13:24:13;;;;;;;4.57;4.18;;;;;;;;;;4982390;28;20689;-35
2023/06/18 13:26:41;;;;;;;4.40;4.00;;;;;;;;;;4974745;28;20255;-32
2023/06/18 13:29:09;;;;;;;4.80;4.30;;;;;;;;;;4993902;28;20813;-38
2023/06/18 13:31:36;;;;;;;4.60;4.22;;;;;;;;;;4993792;28;20206;-38
2023/06/18 13:34:05;;;;;;;5.15;4.65;;;;;;;;;;4985883;28;20251;-37
2023/06/18 13:36:32;;;;;;;4.40;4.00;;;;;;;;;;4981746;28;20299;-37
2023/06/18 13:38:59;;;;;;;5.35;4.53;;;;;;;;;;4974557;28;20255;-38
2023/06/18 13:41:26;;;;;;;4.68;4.10;;;;;;;;;;4984511;28;20200;-36
2023/06/18 13:43:54;;;;;;;6.20;4.13;;;;;;;;;;4992640;28;20196;-40
2023/06/18 13:46:21;;;;;;;5.47;4.53;;;;;;;;;;4994027;28;20215;-37
2023/06/18 13:48:48;;;;;;;4.35;3.95;;;;;;;;;;4983266;28;20450;-38
2023/06/18 13:51:16;;;;;;;4.82;4.28;;;;;;;;;;4980062;28;20199;-39
2023/06/18 13:53:44;;;;;;;5.32;4.82;;;;;;;;;;4975227;28;20225;-39
2023/06/18 13:56:11;;;;;;;5.40;4.55;;;;;;;;;;4986640;28;20211;-37
2023/06/18 13:58:38;;;;;;;5.47;4.97;;;;;;;;;;4982545;28;20224;-33
2023/06/18 14:01:05;;;;;;;6.35;4.60;;;;;;;;;;4976279;28;20202;-41
2023/06/18 14:03:33;;;;;;;5.13;4.10;;;;;;;;;;4990312;28;20203;-37
2023/06/18 14:06:00;;;;;;;5.20;4.70;;;;;;;;;;4985163;28;20212;-37
2023/06/18 14:08:29;;;;;;;8.38;4.75;;;;;;;;;;4979191;28;20239;-38
2023/06/18 14:10:56;;;;;;;4.45;4.05;;;;;;;;;;4984381;28;20208;-36
2023/06/18 14:13:23;;;;;;;4.63;4.22;;;;;;;;;;4993806;28;20216;-39
2023/06/18 14:15:50;;;;;;;4.93;4.43;;;;;;;;;;4993811;28;20214;-39
2023/06/18 14:18:17;;;;;;;5.07;4.25;;;;;;;;;;4988213;28;20224;-34
2023/06/18 14:20:44;;;;;;;5.22;4.43;;;;;;;;;;4983329;28;20212;-40
2023/06/18 14:23:11;;;;;;;4.78;4.32;;;;;;;;;;4972242;28;20287;-36
2023/06/18 14:25:40;;;;;;;5.10;4.60;;;;;;;;;;4982511;28;20214;-38
2023/06/18 14:28:07;;;;;;;5.68;4.60;;;;;;;;;;4973092;28;20196;-42
2023/06/18 14:30:34;;;;;;;4.80;4.40;;;;;;;;;;4990243;28;20214;-36
2023/06/18 14:33:01;;;;;;;4.72;4.32;;;;;;;;;;4991763;28;20247;-36
2023/06/18 14:35:29;;;;;;;4.93;4.40;;;;;;;;;;4979927;28;20816;-40
2023/06/18 14:37:56;;;;;;;4.95;4.55;;;;;;;;;;4973338;28;20258;-38
2023/06/18 14:40:23;;;;;;;4.68;4.28;;;;;;;;;;4973692;28;20196;-40
2023/06/18 14:42:51;;;;;;;4.63;4.22;;;;;;;;;;4974950;28;20255;-39
2023/06/18 14:45:18;;;;;;;4.80;4.40;;;;;;;;;;4973581;28;20207;-38
2023/06/18 14:47:46;;;;;;;5.07;4.25;;;;;;;;;;4978824;28;20200;-33
2023/06/18 14:50:14;;;;;;;5.85;4.57;;;;;;;;;;4988892;28;20223;-38